Time;durP1;ratioP1;P1;durP2;ratioP2;P2;SDS_P1;SDS_P2;PMS_P1;PMS_P2;Temp;Humidity;BMP_temperature;BMP_pressure;BME280_temperature;BME280_humidity;BME280_pressure;Samples;Min_cycle;Max_cycle;Signal;HPM_P1;HPM_P2
2024/03/23 00:00:50;;;;;;;16.50;11.20;;;;;;;12.13;51.61;101703.95;107108;1254;25486;-57
2024/03/23 00:03:17;;;;;;;14.40;11.90;;;;;;;12.11;51.76;101702.77;107136;1257;25365;-57
2024/03/23 00:05:44;;;;;;;13.20;11.80;;;;;;;12.06;51.71;101705.44;107066;1257;25504;-57
2024/03/23 00:08:11;;;;;;;14.90;11.80;;;;;;;12.04;51.64;101705.29;106970;1260;25347;-57
2024/03/23 00:10:39;;;;;;;13.10;11.10;;;;;;;12.02;51.63;101702.35;106118;1257;1002912;-57
2024/03/23 00:13:06;;;;;;;15.90;12.30;;;;;;;12.01;51.78;101705.48;107220;1254;25484;-57
2024/03/23 00:15:34;;;;;;;15.00;12.20;;;;;;;12.01;51.81;101708.11;106996;1254;25378;-57
2024/03/23 00:18:01;;;;;;;16.60;12.70;;;;;;;12.00;51.90;101704.30;107137;1263;25487;-57
2024/03/23 00:20:28;;;;;;;14.70;12.00;;;;;;;12.00;51.95;101705.86;106837;1273;25375;-57
2024/03/23 00:22:54;;;;;;;18.70;12.70;;;;;;;11.99;51.95;101703.27;106343;1254;1002873;-57
2024/03/23 00:25:21;;;;;;;16.40;12.40;;;;;;;11.98;51.95;101702.41;106821;1264;25465;-57
2024/03/23 00:27:48;;;;;;;13.80;12.00;;;;;;;11.97;51.98;101703.65;106931;1260;25395;-57
2024/03/23 00:30:16;;;;;;;14.80;12.00;;;;;;;11.95;52.05;101704.36;106920;1267;25487;-57
2024/03/23 00:32:42;;;;;;;14.50;11.90;;;;;;;11.94;52.06;101704.55;107069;1254;25465;-57
2024/03/23 00:35:09;;;;;;;17.60;13.00;;;;;;;11.93;52.05;101702.66;106910;1258;25375;-57
2024/03/23 00:37:36;;;;;;;17.60;13.50;;;;;;;11.91;52.06;101704.59;106299;1261;1003032;-58
2024/03/23 00:40:04;;;;;;;18.70;13.20;;;;;;;11.89;52.16;101701.83;107044;1254;22541;-57
2024/03/23 00:42:31;;;;;;;15.80;12.10;;;;;;;11.88;52.15;101703.23;107137;1251;25424;-57
2024/03/23 00:44:58;;;;;;;16.00;12.80;;;;;;;11.86;52.19;101703.77;106393;1257;1003464;-57
2024/03/23 00:47:25;;;;;;;17.60;13.30;;;;;;;11.84;52.23;101706.76;107177;1257;25424;-57
2024/03/23 00:49:52;;;;;;;16.50;13.40;;;;;;;11.82;52.25;101706.61;107103;1264;25331;-58
2024/03/23 00:52:19;;;;;;;16.10;13.20;;;;;;;11.79;52.14;101707.67;107099;1260;24215;-57
2024/03/23 00:54:45;;;;;;;21.00;15.00;;;;;;;11.76;52.14;101707.89;107213;1257;25398;-57
2024/03/23 00:57:13;;;;;;;16.10;13.90;;;;;;;11.73;52.19;101710.00;106771;1267;25365;-58
2024/03/23 00:59:39;;;;;;;17.30;13.50;;;;;;;11.70;52.04;101705.36;106950;1263;25424;-58
2024/03/23 01:02:06;;;;;;;17.30;14.60;;;;;;;11.66;52.08;101709.20;106639;1260;25338;-57
2024/03/23 01:04:33;;;;;;;16.60;13.30;;;;;;;11.62;51.99;101705.23;106851;1257;25336;-57
2024/03/23 01:07:00;;;;;;;16.10;13.10;;;;;;;11.59;52.06;101703.54;106899;1259;25805;-57
2024/03/23 01:09:27;;;;;;;16.50;14.20;;;;;;;11.54;52.17;101704.63;106096;1260;1003770;-57
2024/03/23 01:11:54;;;;;;;18.10;14.50;;;;;;;11.49;52.25;101702.44;107100;1257;25372;-57
2024/03/23 01:14:22;;;;;;;16.80;14.20;;;;;;;11.46;52.25;101699.16;107095;1257;25510;-57
2024/03/23 01:16:49;;;;;;;19.50;15.10;;;;;;;11.42;52.34;101700.59;107230;1254;25375;-57
2024/03/23 01:19:16;;;;;;;17.10;13.90;;;;;;;11.38;52.53;101698.02;106879;1267;25497;-57
2024/03/23 01:21:43;;;;;;;17.10;14.00;;;;;;;11.34;52.57;101700.33;107095;1251;23143;-58
2024/03/23 01:24:10;;;;;;;16.80;13.50;;;;;;;11.30;52.77;101696.18;107020;1254;25400;-57
2024/03/23 01:26:37;;;;;;;18.00;15.90;;;;;;;11.31;52.89;101694.77;106308;1258;1003451;-57
2024/03/23 01:29:04;;;;;;;19.90;15.30;;;;;;;11.31;52.89;101698.08;107102;1254;25396;-57
2024/03/23 01:31:32;;;;;;;16.30;14.20;;;;;;;11.31;52.85;101693.58;106964;1260;25351;-57
2024/03/23 01:33:59;;;;;;;18.90;14.20;;;;;;;11.30;52.92;101692.55;107076;1263;25379;-57
2024/03/23 01:36:25;;;;;;;18.20;14.30;;;;;;;11.30;52.92;101689.59;106872;1259;24361;-57
2024/03/23 01:38:52;;;;;;;17.40;13.80;;;;;;;11.31;52.94;101693.04;107032;1266;25375;-57
2024/03/23 01:41:20;;;;;;;15.60;13.20;;;;;;;11.32;52.81;101693.73;106894;1260;25388;-57
2024/03/23 01:43:47;;;;;;;16.20;13.40;;;;;;;11.31;52.81;101690.27;106849;1266;25375;-57
2024/03/23 01:46:14;;;;;;;17.50;14.00;;;;;;;11.31;52.78;101689.76;107150;1256;25375;-57
2024/03/23 01:48:41;;;;;;;16.20;13.90;;;;;;;11.29;52.89;101684.55;107061;1259;23966;-58
2024/03/23 01:51:07;;;;;;;19.60;13.50;;;;;;;11.26;53.17;101687.02;106977;1258;25369;-57
2024/03/23 01:53:34;;;;;;;19.10;15.00;;;;;;;11.22;53.25;101682.89;106904;1270;25372;-57
2024/03/23 01:56:02;;;;;;;17.00;13.80;;;;;;;11.19;53.47;101681.19;107103;1266;25484;-57
2024/03/23 01:58:30;;;;;;;16.40;13.50;;;;;;;11.16;53.64;101677.39;107023;1263;25455;-57
2024/03/23 02:00:58;;;;;;;19.40;14.60;;;;;;;11.14;53.97;101677.23;107068;1255;25371;-57
2024/03/23 02:03:25;;;;;;;18.90;14.30;;;;;;;11.13;54.01;101679.68;106183;1259;1002931;-57
2024/03/23 02:05:53;;;;;;;18.40;14.00;;;;;;;11.13;53.99;101676.73;107026;1256;25347;-57
2024/03/23 02:08:22;;;;;;;19.10;14.40;;;;;;;11.15;53.83;101678.61;107116;1254;22612;-57
2024/03/23 02:10:49;;;;;;;18.70;14.20;;;;;;;11.16;53.87;101674.96;107126;1263;25375;-57
2024/03/23 02:13:20;;;;;;;16.60;14.00;;;;;;;11.15;53.88;101674.63;106759;1257;425247;-58
2024/03/23 02:15:47;;;;;;;15.40;13.20;;;;;;;11.16;53.80;101671.15;107042;1263;25385;-57
2024/03/23 02:18:14;;;;;;;16.00;13.80;;;;;;;11.16;53.54;101672.17;106930;1258;25424;-57
2024/03/23 02:20:41;;;;;;;16.60;13.50;;;;;;;11.17;53.32;101670.08;106848;1257;25375;-57
2024/03/23 02:23:16;;;;;;;17.90;13.30;;;;;;;11.18;53.06;101669.39;107072;1254;25337;-57
2024/03/23 02:25:42;;;;;;;20.00;13.60;;;;;;;11.17;52.87;101668.87;106995;1263;26624;-57
2024/03/23 02:28:10;;;;;;;19.20;14.50;;;;;;;11.14;52.75;101661.09;106718;1260;25424;-57
2024/03/23 02:30:37;;;;;;;15.80;13.40;;;;;;;11.14;52.97;101661.95;106899;1257;25341;-57
2024/03/23 02:33:04;;;;;;;16.30;13.70;;;;;;;11.13;52.99;101662.13;106902;1257;25346;-59
2024/03/23 02:35:31;;;;;;;17.70;14.60;;;;;;;11.11;53.03;101666.15;106819;1266;22650;-58
2024/03/23 02:37:58;;;;;;;16.50;13.70;;;;;;;11.09;53.13;101667.91;107009;1257;25343;-58
2024/03/23 02:40:25;;;;;;;17.80;14.60;;;;;;;11.05;53.09;101664.65;107127;1256;25487;-58
2024/03/23 02:42:52;;;;;;;17.00;13.30;;;;;;;11.03;53.22;101665.88;107059;1254;25350;-58
2024/03/23 02:45:19;;;;;;;17.40;14.20;;;;;;;11.02;53.24;101666.59;107147;1258;25401;-58
2024/03/23 02:47:46;;;;;;;17.70;14.40;;;;;;;11.01;53.30;101665.55;107132;1254;25349;-59
2024/03/23 02:50:15;;;;;;;18.70;14.40;;;;;;;10.98;53.30;101665.06;106943;1267;25459;-59
2024/03/23 02:52:42;;;;;;;19.60;15.30;;;;;;;10.98;53.43;101666.29;107133;1254;25349;-58
2024/03/23 02:55:09;;;;;;;20.30;15.60;;;;;;;10.98;53.51;101663.33;107072;1256;25350;-59
2024/03/23 02:57:36;;;;;;;19.10;15.90;;;;;;;10.99;53.58;101661.59;107096;1260;22653;-58
2024/03/23 03:00:04;;;;;;;19.30;15.60;;;;;;;11.00;53.64;101658.98;107073;1256;25366;-58
2024/03/23 03:02:31;;;;;;;19.50;15.50;;;;;;;11.01;53.63;101660.69;107127;1254;25344;-57
2024/03/23 03:04:58;;;;;;;20.30;15.40;;;;;;;11.01;53.71;101660.00;107052;1258;25386;-57
2024/03/23 03:07:25;;;;;;;19.20;15.20;;;;;;;11.01;53.69;101656.88;107131;1257;25347;-57
2024/03/23 03:09:52;;;;;;;17.40;14.40;;;;;;;11.02;53.64;101656.70;107149;1257;25423;-58
2024/03/23 03:12:19;;;;;;;18.20;14.50;;;;;;;11.03;53.54;101656.67;107096;1254;25380;-57
2024/03/23 03:14:46;;;;;;;18.60;14.90;;;;;;;11.03;53.38;101655.81;107093;1256;22548;-57
2024/03/23 03:17:13;;;;;;;17.80;14.10;;;;;;;11.01;53.41;101653.76;107079;1266;25440;-58
2024/03/23 03:19:40;;;;;;;20.00;16.70;;;;;;;10.98;53.63;101654.31;107157;1263;25375;-58
2024/03/23 03:22:07;;;;;;;18.60;15.30;;;;;;;10.94;53.67;101649.64;106384;1251;1003057;-57
2024/03/23 03:24:34;;;;;;;20.80;15.70;;;;;;;10.92;53.85;101650.02;107072;1266;25395;-56
2024/03/23 03:27:03;;;;;;;18.50;15.10;;;;;;;10.90;54.07;101648.83;107061;1263;25343;-59
2024/03/23 03:29:35;;;;;;;19.10;14.80;;;;;;;10.88;54.19;101648.65;106964;1257;23327;-59
2024/03/23 03:32:03;;;;;;;19.30;15.30;;;;;;;10.89;54.06;101648.13;106763;1256;25392;-60
2024/03/23 03:34:30;;;;;;;17.40;14.40;;;;;;;10.90;53.73;101646.89;106783;1259;25303;-58
2024/03/23 03:36:57;;;;;;;19.50;14.90;;;;;;;10.92;53.45;101648.45;107057;1256;24199;-57
2024/03/23 03:39:24;;;;;;;16.40;13.40;;;;;;;10.93;53.28;101645.66;106994;1256;25354;-58
2024/03/23 03:41:51;;;;;;;19.00;14.50;;;;;;;10.93;53.05;101648.27;107088;1254;25473;-58
2024/03/23 03:44:18;;;;;;;23.50;15.80;;;;;;;10.92;52.90;101647.58;107136;1267;25347;-58
2024/03/23 03:46:45;;;;;;;20.30;15.40;;;;;;;10.91;52.80;101648.11;106358;1257;1003520;-58
2024/03/23 03:49:12;;;;;;;19.50;15.10;;;;;;;10.90;52.57;101644.98;107075;1263;25395;-58
2024/03/23 03:51:39;;;;;;;19.50;15.90;;;;;;;10.88;52.60;101642.05;106945;1270;25351;-59
2024/03/23 03:54:06;;;;;;;19.60;15.20;;;;;;;10.88;52.60;101642.75;106391;1259;1003530;-58
2024/03/23 03:56:33;;;;;;;18.60;15.30;;;;;;;10.87;52.39;101640.51;107152;1257;25488;-57
2024/03/23 03:59:00;;;;;;;16.30;13.90;;;;;;;10.85;52.33;101635.48;106932;1266;25344;-57
2024/03/23 04:01:27;;;;;;;21.30;15.50;;;;;;;10.83;52.38;101635.52;107061;1254;25424;-57
2024/03/23 04:03:54;;;;;;;19.30;14.60;;;;;;;10.82;52.41;101636.04;107068;1266;25347;-58
2024/03/23 04:06:21;;;;;;;20.20;16.50;;;;;;;10.82;52.28;101638.46;107101;1257;25328;-58
2024/03/23 04:08:48;;;;;;;20.20;16.00;;;;;;;10.81;52.20;101636.58;106876;1257;25431;-58
2024/03/23 04:11:15;;;;;;;23.00;15.80;;;;;;;10.80;52.30;101639.35;107184;1256;25338;-57
2024/03/23 04:13:41;;;;;;;21.00;16.20;;;;;;;10.80;52.37;101636.41;107016;1260;25427;-58
2024/03/23 04:16:11;;;;;;;19.70;15.10;;;;;;;10.80;52.33;101635.37;106932;1259;25405;-58
2024/03/23 04:18:38;;;;;;;19.00;15.10;;;;;;;10.80;52.25;101637.61;107063;1263;25455;-58
2024/03/23 04:21:05;;;;;;;20.50;14.80;;;;;;;10.80;52.07;101636.58;107056;1254;25365;-58
2024/03/23 04:23:32;;;;;;;19.00;14.90;;;;;;;10.79;51.96;101636.41;106379;1254;1003069;-58
2024/03/23 04:26:04;;;;;;;22.30;14.80;;;;;;;10.77;52.00;101632.27;107046;1257;25487;-58
2024/03/23 04:28:31;;;;;;;17.30;14.10;;;;;;;10.77;52.01;101635.21;106828;1259;25227;-58
2024/03/23 04:30:57;;;;;;;19.90;14.90;;;;;;;10.77;52.14;101632.10;106979;1267;25424;-58
2024/03/23 04:33:24;;;;;;;21.50;16.00;;;;;;;10.77;52.25;101631.05;107169;1256;22547;-58
2024/03/23 04:35:51;;;;;;;20.20;15.70;;;;;;;10.77;52.39;101630.02;107150;1256;25353;-58
2024/03/23 04:38:19;;;;;;;19.40;15.00;;;;;;;10.79;52.49;101630.17;107130;1254;25347;-58
2024/03/23 04:40:54;;;;;;;18.20;14.50;;;;;;;10.81;52.50;101629.98;107240;1257;25347;-58
2024/03/23 04:43:22;;;;;;;19.70;16.20;;;;;;;10.83;52.62;101628.91;106482;1263;1003532;-59
2024/03/23 04:45:49;;;;;;;22.50;15.90;;;;;;;10.86;52.55;101630.28;107088;1257;25369;-58
2024/03/23 04:48:19;;;;;;;22.00;17.50;;;;;;;10.89;52.60;101629.02;107153;1257;25519;-58
2024/03/23 04:50:46;;;;;;;27.00;20.20;;;;;;;10.91;52.52;101634.73;107162;1263;25545;-58
2024/03/23 04:53:13;;;;;;;60.80;39.50;;;;;;;10.93;52.49;101637.16;106844;1260;25376;-58
2024/03/23 04:55:40;;;;;;;74.90;48.60;;;;;;;10.94;52.53;101635.58;106792;1263;25459;-58
2024/03/23 04:58:07;;;;;;;50.30;34.60;;;;;;;10.96;52.51;101629.85;106848;1260;25472;-58
2024/03/23 05:00:34;;;;;;;37.00;27.90;;;;;;;10.98;52.51;101627.39;107007;1267;25329;-58
2024/03/23 05:03:01;;;;;;;46.40;31.50;;;;;;;11.00;52.58;101630.50;107021;1260;25412;-57
2024/03/23 05:05:28;;;;;;;34.90;24.90;;;;;;;11.03;52.62;101634.30;107079;1260;25318;-58
2024/03/23 05:07:55;;;;;;;31.70;22.20;;;;;;;11.07;52.84;101633.71;107068;1266;25468;-59
2024/03/23 05:10:22;;;;;;;28.20;20.10;;;;;;;11.11;53.05;101633.50;107001;1257;25424;-58
2024/03/23 05:12:49;;;;;;;25.70;19.80;;;;;;;11.17;53.31;101633.80;106919;1256;26098;-58
2024/03/23 05:15:16;;;;;;;26.50;20.20;;;;;;;11.23;53.74;101637.38;106818;1270;25424;-57
2024/03/23 05:17:43;;;;;;;31.30;20.60;;;;;;;11.30;54.04;101641.83;107039;1251;24054;-58
2024/03/23 05:20:12;;;;;;;30.40;22.40;;;;;;;11.32;54.62;101642.31;107020;1263;25347;-57
2024/03/23 05:22:39;;;;;;;29.20;21.80;;;;;;;11.38;54.94;101640.69;107120;1257;25347;-57
2024/03/23 05:25:07;;;;;;;27.10;21.80;;;;;;;11.51;55.34;101638.80;106879;1259;25427;-58
2024/03/23 05:27:34;;;;;;;25.40;20.90;;;;;;;11.59;55.57;101629.86;107022;1260;25452;-58
2024/03/23 05:30:01;;;;;;;24.70;20.00;;;;;;;11.67;55.81;101633.95;107106;1256;24265;-57
2024/03/23 05:32:28;;;;;;;22.50;20.00;;;;;;;11.74;56.05;101636.13;107008;1254;25347;-58
2024/03/23 05:34:56;;;;;;;24.90;19.90;;;;;;;11.79;56.38;101643.20;107105;1257;25475;-58
2024/03/23 05:37:23;;;;;;;21.60;16.90;;;;;;;11.85;56.46;101642.95;107146;1256;25382;-56
2024/03/23 05:39:50;;;;;;;20.90;18.40;;;;;;;11.90;56.62;101643.05;106746;1262;25356;-58
2024/03/23 05:42:18;;;;;;;22.30;19.30;;;;;;;11.96;56.72;101643.50;106940;1260;25487;-58
2024/03/23 05:44:45;;;;;;;21.60;18.30;;;;;;;12.04;56.79;101644.59;107081;1257;25350;-59
2024/03/23 05:47:16;;;;;;;22.70;18.10;;;;;;;12.12;56.69;101646.38;107044;1257;25500;-59
2024/03/23 05:49:43;;;;;;;20.90;18.60;;;;;;;12.19;56.70;101646.98;107144;1264;23188;-58
2024/03/23 05:52:10;;;;;;;24.10;17.90;;;;;;;12.25;56.72;101645.67;107060;1257;23891;-58
2024/03/23 05:54:37;;;;;;;18.30;14.30;;;;;;;12.31;56.56;101643.52;107075;1257;25414;-58
2024/03/23 05:57:04;;;;;;;14.00;12.60;;;;;;;12.38;56.72;101643.77;106833;1271;25334;-58
2024/03/23 05:59:31;;;;;;;14.50;12.80;;;;;;;12.44;56.90;101646.27;107130;1270;25497;-58
2024/03/23 06:01:58;;;;;;;14.70;13.20;;;;;;;12.59;57.80;101648.48;107106;1257;25362;-58
2024/03/23 06:04:25;;;;;;;14.70;13.20;;;;;;;12.81;58.20;101647.05;107124;1263;23772;-58
2024/03/23 06:06:54;;;;;;;15.00;13.50;;;;;;;13.10;58.14;101643.45;107064;1263;22531;-57
2024/03/23 06:09:22;;;;;;;11.80;10.70;;;;;;;13.45;57.44;101643.14;106956;1266;25329;-58
2024/03/23 06:11:49;;;;;;;12.70;11.10;;;;;;;13.83;56.52;101640.09;106912;1260;25329;-58
2024/03/23 06:14:16;;;;;;;11.90;10.70;;;;;;;14.21;55.46;101638.73;107089;1256;25449;-57
2024/03/23 06:16:42;;;;;;;10.20;9.20;;;;;;;14.55;54.24;101633.77;106953;1259;22625;-59
2024/03/23 06:19:09;;;;;;;9.50;8.60;;;;;;;14.83;53.55;101635.52;106882;1260;25337;-57
2024/03/23 06:21:36;;;;;;;9.70;8.70;;;;;;;15.13;52.91;101631.25;106852;1263;25335;-58
2024/03/23 06:24:04;;;;;;;8.50;7.70;;;;;;;15.44;52.01;101630.23;107113;1269;25409;-57
2024/03/23 06:26:31;;;;;;;8.70;7.90;;;;;;;15.73;51.18;101631.34;106917;1260;24288;-57
2024/03/23 06:28:58;;;;;;;9.50;8.60;;;;;;;16.01;50.25;101636.59;107102;1269;25561;-57
2024/03/23 06:31:25;;;;;;;9.50;8.50;;;;;;;16.23;49.50;101635.58;107043;1257;25356;-57
2024/03/23 06:33:51;;;;;;;12.70;9.50;;;;;;;16.39;49.05;101635.63;106952;1266;25424;-57
2024/03/23 06:36:19;;;;;;;10.70;9.60;;;;;;;16.51;48.44;101636.98;106999;1260;25341;-58
2024/03/23 06:38:46;;;;;;;10.40;9.30;;;;;;;16.63;47.98;101638.20;106938;1269;22531;-58
2024/03/23 06:41:13;;;;;;;13.40;9.70;;;;;;;16.73;47.48;101641.55;107177;1257;25341;-57
2024/03/23 06:43:40;;;;;;;11.10;10.00;;;;;;;16.80;47.26;101638.32;107152;1256;25378;-57
2024/03/23 06:46:07;;;;;;;11.50;10.30;;;;;;;16.86;47.11;101632.15;107146;1257;23096;-57
2024/03/23 06:48:34;;;;;;;11.70;10.40;;;;;;;16.90;47.32;101630.42;107051;1257;25350;-57
2024/03/23 06:51:01;;;;;;;12.20;11.00;;;;;;;16.97;47.11;101631.94;106804;1260;25420;-57
2024/03/23 06:53:29;;;;;;;15.10;13.40;;;;;;;17.05;47.06;101633.97;106901;1257;25369;-57
2024/03/23 06:55:56;;;;;;;16.40;14.50;;;;;;;17.12;46.67;101635.80;106938;1257;25420;-57
2024/03/23 06:58:24;;;;;;;17.90;15.50;;;;;;;17.21;46.35;101634.27;106703;1270;25391;-58
2024/03/23 07:01:11;;;;;;;18.20;15.20;;;;;;;17.31;45.82;101636.52;106402;1271;25379;-56
2024/03/23 07:03:38;;;;;;;18.20;15.00;;;;;;;17.35;45.83;101630.41;106890;1260;25341;-56
2024/03/23 07:06:05;;;;;;;16.50;14.40;;;;;;;17.42;45.86;101632.83;106832;1260;26228;-56
2024/03/23 07:08:32;;;;;;;16.50;14.00;;;;;;;17.48;45.56;101630.13;106838;1272;25347;-55
2024/03/23 07:10:59;;;;;;;17.90;14.60;;;;;;;17.51;45.46;101627.08;106916;1260;25408;-56
2024/03/23 07:13:26;;;;;;;17.60;14.20;;;;;;;17.54;45.69;101630.46;106876;1260;25484;-56
2024/03/23 07:15:54;;;;;;;15.00;13.50;;;;;;;17.58;45.87;101625.05;106168;1267;1002945;-56
2024/03/23 07:18:22;;;;;;;16.30;13.00;;;;;;;17.64;45.64;101626.95;107177;1263;25359;-56
2024/03/23 07:20:53;;;;;;;17.00;14.60;;;;;;;17.67;45.50;101625.94;106796;1263;25608;-56
2024/03/23 07:23:20;;;;;;;18.00;15.60;;;;;;;17.70;45.40;101629.50;106790;1266;22562;-56
2024/03/23 07:25:56;;;;;;;18.80;16.80;;;;;;;17.73;45.37;101633.23;106751;1260;24163;-57
2024/03/23 07:28:23;;;;;;;18.90;16.70;;;;;;;17.77;44.97;101631.52;106857;1270;22536;-56
2024/03/23 07:31:09;;;;;;;18.60;16.40;;;;;;;17.78;44.89;101633.05;106872;1263;25529;-56
2024/03/23 07:33:40;;;;;;;18.60;16.00;;;;;;;17.78;44.87;101628.67;106671;1277;25399;-56
2024/03/23 07:36:08;;;;;;;19.80;16.50;;;;;;;17.73;44.78;101628.50;106814;1270;25418;-56
2024/03/23 07:38:35;;;;;;;21.00;16.20;;;;;;;17.63;44.77;101625.05;106936;1267;25347;-56
2024/03/23 07:41:06;;;;;;;19.00;15.00;;;;;;;17.47;44.76;101627.36;107074;1263;25447;-56
2024/03/23 07:43:33;;;;;;;19.20;15.80;;;;;;;17.28;45.03;101628.41;107121;1251;25374;-56
2024/03/23 07:46:01;;;;;;;20.20;16.60;;;;;;;17.09;45.35;101629.42;107161;1270;25347;-55
2024/03/23 07:48:28;;;;;;;18.90;15.20;;;;;;;16.91;45.50;101628.67;107180;1259;25497;-55
2024/03/23 07:51:10;;;;;;;16.30;14.40;;;;;;;16.73;45.88;101631.38;107330;1265;25379;-56
2024/03/23 07:53:37;;;;;;;20.10;15.70;;;;;;;16.56;46.21;101630.55;107158;1257;25366;-56
2024/03/23 07:56:08;;;;;;;21.70;15.10;;;;;;;16.43;46.49;101629.16;107128;1263;25516;-56
2024/03/23 07:58:36;;;;;;;17.60;14.30;;;;;;;16.32;46.77;101624.61;107203;1263;25347;-56
2024/03/23 08:01:05;;;;;;;17.40;15.20;;;;;;;16.22;46.83;101626.52;106984;1270;25465;-56
2024/03/23 08:03:31;;;;;;;21.80;15.30;;;;;;;16.12;47.03;101624.36;107218;1263;22646;-56
2024/03/23 08:06:06;;;;;;;17.40;15.50;;;;;;;16.04;47.27;101620.77;106366;1263;1003050;-56
2024/03/23 08:08:34;;;;;;;20.10;15.80;;;;;;;15.97;47.43;101619.06;107014;1267;25585;-56
2024/03/23 08:11:01;;;;;;;17.10;15.30;;;;;;;15.94;47.90;101615.33;107199;1263;23658;-55
2024/03/23 08:13:28;;;;;;;17.60;15.70;;;;;;;15.91;48.04;101616.27;107328;1273;23944;-56
2024/03/23 08:16:01;;;;;;;20.00;16.10;;;;;;;15.90;48.09;101617.35;107127;1256;24118;-55
2024/03/23 08:18:29;;;;;;;19.60;15.40;;;;;;;15.89;48.27;101617.56;107218;1256;22644;-56
2024/03/23 08:21:02;;;;;;;20.50;15.90;;;;;;;15.88;48.59;101620.91;107030;1263;24204;-55
2024/03/23 08:23:33;;;;;;;18.00;15.40;;;;;;;15.89;48.92;101618.95;106909;1260;25529;-56
2024/03/23 08:26:00;;;;;;;16.50;14.30;;;;;;;15.92;48.68;101614.84;107174;1256;25462;-56
2024/03/23 08:28:27;;;;;;;15.30;12.90;;;;;;;15.95;48.89;101611.42;106868;1266;22540;-56
2024/03/23 08:30:54;;;;;;;16.70;13.90;;;;;;;15.98;49.00;101611.17;107165;1257;22578;-55
2024/03/23 08:33:23;;;;;;;16.80;13.00;;;;;;;15.99;48.90;101611.30;106949;1251;25557;-57
2024/03/23 08:36:16;;;;;;;15.40;13.00;;;;;;;15.99;48.72;101610.94;107072;1256;22542;-55
2024/03/23 08:38:44;;;;;;;14.40;12.90;;;;;;;15.99;48.77;101607.27;106630;1266;23750;-56
2024/03/23 08:41:11;;;;;;;13.80;12.30;;;;;;;16.01;48.73;101606.17;106448;1266;25495;-56
2024/03/23 08:43:39;;;;;;;13.80;12.00;;;;;;;16.04;48.68;101608.02;106600;1262;22586;-56
2024/03/23 08:46:10;;;;;;;14.10;12.50;;;;;;;16.05;48.43;101611.27;106261;1260;25471;-56
2024/03/23 08:48:39;;;;;;;14.10;12.40;;;;;;;16.05;48.41;101611.65;106422;1272;24389;-55
2024/03/23 08:51:07;;;;;;;17.30;13.10;;;;;;;16.02;48.40;101611.39;106672;1265;22596;-56
2024/03/23 08:53:37;;;;;;;16.50;12.40;;;;;;;16.00;48.61;101611.44;106667;1265;22542;-56
2024/03/23 08:56:06;;;;;;;13.60;12.10;;;;;;;16.02;48.54;101614.17;106616;1273;25374;-56
2024/03/23 08:58:33;;;;;;;13.50;12.00;;;;;;;16.04;48.30;101612.71;106668;1276;25377;-56
2024/03/23 09:01:09;;;;;;;13.50;11.80;;;;;;;16.07;48.18;101613.33;106664;1263;25008;-56
2024/03/23 09:03:36;;;;;;;14.40;11.30;;;;;;;16.09;47.84;101613.07;106541;1275;25386;-56
2024/03/23 09:06:11;;;;;;;14.30;10.90;;;;;;;16.10;47.51;101614.11;106413;1265;25373;-56
2024/03/23 09:08:39;;;;;;;12.20;10.20;;;;;;;16.11;47.34;101610.05;106564;1278;25386;-56
2024/03/23 09:11:11;;;;;;;12.00;10.30;;;;;;;16.13;47.28;101607.20;106619;1275;24386;-55
2024/03/23 09:13:38;;;;;;;;;;;;;;;16.14;47.16;101606.10;106739;1262;24501;-56
2024/03/23 09:16:05;;;;;;;11.40;9.70;;;;;;;16.13;47.24;101606.67;106998;1250;25331;-55
2024/03/23 09:18:35;;;;;;;10.50;9.20;;;;;;;16.12;47.19;101604.78;107205;1256;22597;-56
2024/03/23 09:21:03;;;;;;;10.40;9.30;;;;;;;16.11;47.25;101603.58;107331;1267;25409;-56
2024/03/23 09:23:30;;;;;;;12.50;9.50;;;;;;;16.13;47.38;101599.66;107131;1270;22534;-55
2024/03/23 09:25:57;;;;;;;12.50;10.50;;;;;;;16.14;47.46;101596.29;107229;1251;25344;-55
2024/03/23 09:28:24;;;;;;;10.30;9.20;;;;;;;16.18;47.63;101593.20;107151;1271;25386;-55
2024/03/23 09:30:51;;;;;;;11.20;9.90;;;;;;;16.22;47.77;101594.48;107248;1251;22697;-55
2024/03/23 09:33:18;;;;;;;10.60;9.40;;;;;;;16.29;47.62;101591.96;107134;1257;25426;-56
2024/03/23 09:35:47;;;;;;;10.50;9.10;;;;;;;16.36;47.49;101588.59;107197;1251;25331;-55
2024/03/23 09:38:14;;;;;;;13.00;9.20;;;;;;;16.43;47.31;101591.87;107311;1257;25347;-56
2024/03/23 09:40:44;;;;;;;10.20;9.10;;;;;;;16.48;47.23;101589.26;107440;1256;25424;-55
2024/03/23 09:43:11;;;;;;;10.90;9.40;;;;;;;16.52;47.38;101587.22;107015;1260;23346;-55
2024/03/23 09:45:41;;;;;;;11.00;9.60;;;;;;;16.56;47.43;101586.41;107362;1260;23029;-56
2024/03/23 09:48:09;;;;;;;9.70;8.40;;;;;;;16.60;47.22;101583.30;107282;1257;25340;-56
2024/03/23 09:50:41;;;;;;;11.10;8.80;;;;;;;16.62;46.96;101582.16;107064;1271;25372;-56
2024/03/23 09:53:08;;;;;;;10.40;9.10;;;;;;;16.64;46.74;101581.58;107208;1258;23919;-56
2024/03/23 09:55:35;;;;;;;12.20;8.70;;;;;;;16.66;46.84;101582.02;107226;1263;22542;-55
2024/03/23 09:58:04;;;;;;;10.20;8.60;;;;;;;16.68;47.11;101582.32;107004;1274;26669;-55
2024/03/23 10:00:32;;;;;;;10.00;8.80;;;;;;;16.72;47.47;101583.23;107253;1269;25241;-55
2024/03/23 10:03:02;;;;;;;10.10;8.60;;;;;;;16.76;47.41;101576.26;107315;1255;23220;-56
2024/03/23 10:05:33;;;;;;;10.90;9.10;;;;;;;16.80;47.27;101571.92;107186;1267;23885;-55
2024/03/23 10:08:14;;;;;;;10.30;8.60;;;;;;;16.82;46.96;101566.03;107269;1258;25353;-55
2024/03/23 10:10:41;;;;;;;9.80;8.10;;;;;;;16.85;46.82;101565.96;107346;1254;25522;-55
2024/03/23 10:13:08;;;;;;;8.90;8.00;;;;;;;16.86;46.95;101563.09;107332;1254;22529;-55
2024/03/23 10:15:36;;;;;;;10.00;8.70;;;;;;;16.90;47.20;101561.74;106997;1258;25398;-55
2024/03/23 10:18:18;;;;;;;10.30;9.10;;;;;;;16.91;47.03;101553.97;107123;1270;25359;-55
2024/03/23 10:21:06;;;;;;;9.20;8.30;;;;;;;16.93;47.00;101551.48;107238;1267;22539;-55
2024/03/23 10:23:36;;;;;;;10.10;8.70;;;;;;;16.94;46.87;101545.48;107320;1257;22600;-55
2024/03/23 10:26:15;;;;;;;9.80;7.80;;;;;;;16.93;46.86;101543.77;107317;1251;22518;-55
2024/03/23 10:29:04;;;;;;;9.50;8.50;;;;;;;16.93;46.96;101541.48;107072;1251;26538;-55
2024/03/23 10:31:31;;;;;;;9.30;8.00;;;;;;;16.92;47.20;101539.05;106288;1267;1002940;-55
2024/03/23 10:34:00;;;;;;;10.60;8.30;;;;;;;16.90;47.03;101537.02;107037;1267;25338;-55
2024/03/23 10:36:27;;;;;;;9.20;8.30;;;;;;;16.88;47.00;101526.75;106852;1257;25421;-55
2024/03/23 10:38:54;;;;;;;10.10;8.20;;;;;;;16.87;47.15;101525.39;106997;1257;25403;-55
2024/03/23 10:41:21;;;;;;;9.30;8.20;;;;;;;16.88;47.37;101520.80;107143;1267;25449;-57
2024/03/23 10:43:49;;;;;;;11.50;8.90;;;;;;;16.88;47.27;101512.21;107172;1254;25571;-55
2024/03/23 10:46:16;;;;;;;8.40;7.50;;;;;;;16.88;47.47;101508.73;107099;1258;25407;-55
2024/03/23 10:48:44;;;;;;;9.70;8.30;;;;;;;16.89;47.58;101505.17;107176;1267;25458;-57
2024/03/23 10:51:11;;;;;;;8.70;7.80;;;;;;;16.90;47.37;101503.54;106886;1257;25341;-56
2024/03/23 10:53:38;;;;;;;8.40;7.50;;;;;;;16.91;47.10;101499.48;107018;1259;22789;-56
2024/03/23 10:56:05;;;;;;;9.50;8.50;;;;;;;16.89;47.15;101494.13;106873;1270;25391;-56
2024/03/23 10:58:44;;;;;;;8.70;7.80;;;;;;;16.89;47.07;101493.08;106904;1270;25347;-56
2024/03/23 11:01:13;;;;;;;8.90;8.00;;;;;;;16.88;47.17;101485.91;107053;1274;25382;-56
2024/03/23 11:03:45;;;;;;;9.30;8.40;;;;;;;16.88;47.16;101488.39;107120;1270;22616;-56
2024/03/23 11:06:38;;;;;;;8.60;7.70;;;;;;;16.85;47.21;101487.59;106894;1270;24463;-56
2024/03/23 11:09:44;;;;;;;10.00;7.70;;;;;;;16.84;47.19;101489.77;107267;1251;25485;-56